Time;durP1;ratioP1;P1;durP2;ratioP2;P2;SDS_P1;SDS_P2;PMS_P1;PMS_P2;Temp;Humidity;BMP_temperature;BMP_pressure;BME280_temperature;BME280_humidity;BME280_pressure;Samples;Min_cycle;Max_cycle;Signal;HPM_P1;HPM_P2
2023/01/17 00:00:28;;;;;;;52.50;32.78;;;;;;;2.55;100.00;98955.56;5006725;28;20108;-75
2023/01/17 00:02:54;;;;;;;58.35;35.08;;;;;;;3.17;100.00;99051.06;5004225;28;20050;-75
2023/01/17 00:10:52;;;;;;;52.97;31.88;;;;;;;2.44;100.00;98897.69;4975298;28;20049;-76
2023/01/17 00:13:17;;;;;;;53.58;30.55;;;;;;;3.18;100.00;99038.97;5013148;28;20041;-76
2023/01/17 00:15:43;;;;;;;56.95;32.50;;;;;;;3.22;100.00;99027.78;5016219;28;20133;-76
2023/01/17 00:18:08;;;;;;;49.13;28.83;;;;;;;3.54;100.00;99040.94;5004401;28;20069;-75
2023/01/17 00:26:25;;;;;;;48.97;28.60;;;;;;;3.69;100.00;99006.44;4920328;29;20082;-77
2023/01/17 01:35:52;;;;;;;69.40;34.20;;;;;;;3.63;100.00;98990.88;4999827;28;20053;-78
2023/01/17 01:38:20;;;;;;;63.47;35.58;;;;;;;2.47;100.00;98906.31;4999965;28;20058;-75
2023/01/17 01:40:49;;;;;;;57.80;33.08;;;;;;;2.17;100.00;98851.72;5005314;28;20082;-77
2023/01/17 01:43:18;;;;;;;54.90;32.63;;;;;;;2.19;100.00;98845.72;5003588;28;20049;-78
2023/01/17 01:45:49;;;;;;;45.63;28.40;;;;;;;2.84;100.00;98970.50;5006059;28;20148;-76
2023/01/17 01:48:42;;;;;;;48.13;33.17;;;;;;;2.46;100.00;98881.31;4999646;28;20439;-77
2023/01/17 01:51:15;;;;;;;49.17;29.90;;;;;;;2.24;100.00;98853.50;5002641;28;20064;-77
2023/01/17 01:53:46;;;;;;;51.35;29.02;;;;;;;2.24;100.00;98856.09;5006254;28;20060;-77
2023/01/17 01:56:14;;;;;;;52.63;30.00;;;;;;;2.45;100.00;98863.16;5007211;28;20559;-77
2023/01/17 01:58:43;;;;;;;47.03;29.17;;;;;;;3.16;100.00;98984.56;5005370;28;20538;-76
2023/01/17 02:01:09;;;;;;;54.90;27.70;;;;;;;3.06;100.00;98940.41;5003221;28;20033;-75
2023/01/17 02:03:36;;;;;;;53.05;28.88;;;;;;;3.29;100.00;98944.00;4999216;28;20049;-78
2023/01/17 02:06:13;;;;;;;58.05;29.80;;;;;;;2.79;100.00;98829.75;5001541;28;20050;-79
2023/01/17 02:08:40;;;;;;;45.08;27.83;;;;;;;3.38;100.00;98944.06;5001379;28;20061;-76
2023/01/17 02:11:06;;;;;;;52.97;29.35;;;;;;;3.30;100.00;98944.88;5002529;28;20092;-78
2023/01/17 02:13:31;;;;;;;54.20;27.63;;;;;;;3.23;100.00;98907.72;5002635;28;20125;-76
2023/01/17 02:16:44;;;;;;;41.58;26.98;;;;;;;3.51;100.00;98954.47;5004462;28;20125;-77
2023/01/17 02:19:12;;;;;;;52.00;31.17;;;;;;;3.42;100.00;98937.16;4998632;28;20073;-76
2023/01/17 02:22:19;;;;;;;55.10;32.65;;;;;;;3.47;100.00;98934.59;4995745;28;20108;-75
2023/01/17 02:25:07;;;;;;;55.45;30.10;;;;;;;3.42;100.00;98932.00;4979280;28;20101;-76
2023/01/17 02:27:48;;;;;;;47.38;31.00;;;;;;;2.71;100.00;98814.13;5002232;28;20233;-78
2023/01/17 02:30:33;;;;;;;46.72;30.20;;;;;;;2.88;100.00;98811.63;5010972;28;20054;-78
2023/01/17 02:33:16;;;;;;;48.83;31.92;;;;;;;2.78;100.00;98823.66;4999667;28;20399;-77
2023/01/17 02:35:55;;;;;;;;;;;;;;;3.37;100.00;98963.06;4992977;28;20056;-75
2023/01/17 02:38:37;;;;;;;45.40;27.50;;;;;;;2.92;100.00;98948.09;4998461;28;19925;-77
2023/01/17 02:41:28;;;;;;;43.58;26.92;;;;;;;2.41;100.00;98862.28;5001429;28;20073;-77
2023/01/17 02:43:53;;;;;;;43.67;26.33;;;;;;;3.07;100.00;98966.34;4995545;28;20463;-77
2023/01/17 02:46:19;;;;;;;61.45;31.58;;;;;;;3.29;100.00;98989.81;5000742;28;20034;-78
2023/01/17 02:48:46;;;;;;;42.78;25.38;;;;;;;2.55;100.00;98864.94;5003762;28;20053;-74
2023/01/17 02:51:37;;;;;;;45.10;29.58;;;;;;;3.26;100.00;99002.75;5004214;28;20496;-78
2023/01/17 02:54:12;;;;;;;50.30;30.38;;;;;;;3.01;100.00;98999.13;4996374;28;20038;-75
2023/01/17 02:57:00;;;;;;;52.60;29.95;;;;;;;3.07;100.00;98981.03;5001575;28;20062;-77
2023/01/17 02:59:44;;;;;;;55.42;30.48;;;;;;;2.22;100.00;98778.44;5004435;28;20057;-76
2023/01/17 03:02:53;;;;;;;52.25;30.52;;;;;;;3.32;100.00;98976.84;5003603;28;20185;-76
2023/01/17 03:05:42;;;;;;;46.58;29.17;;;;;;;3.13;100.00;98987.09;5003203;28;20445;-76
2023/01/17 03:08:10;;;;;;;49.92;28.92;;;;;;;2.61;100.00;98958.22;4998524;28;20081;-76
2023/01/17 03:10:35;;;;;;;47.72;31.27;;;;;;;2.58;100.00;98949.56;5005147;28;20049;-76
2023/01/17 03:13:02;;;;;;;54.03;31.60;;;;;;;2.01;100.00;98838.66;5008331;28;20481;-77
2023/01/17 03:15:28;;;;;;;65.28;33.05;;;;;;;2.40;100.00;98919.22;5008090;28;20501;-78
2023/01/17 03:17:59;;;;;;;53.75;31.15;;;;;;;2.49;100.00;98927.06;5002481;28;20065;-76
2023/01/17 03:20:25;;;;;;;49.05;29.13;;;;;;;2.18;100.00;98822.41;5003453;28;20046;-74
2023/01/17 03:22:50;;;;;;;46.28;28.13;;;;;;;3.02;100.00;98939.53;5009380;28;20177;-77
2023/01/17 03:25:16;;;;;;;56.70;30.50;;;;;;;3.10;100.00;98943.03;5009892;28;20040;-77
2023/01/17 03:27:42;;;;;;;47.03;28.80;;;;;;;2.74;100.00;98935.91;5009855;28;20046;-76
2023/01/17 03:30:08;;;;;;;56.92;30.33;;;;;;;2.82;100.00;98936.81;5006167;28;20053;-75
2023/01/17 03:32:33;;;;;;;53.58;28.92;;;;;;;2.86;100.00;98929.94;5002079;28;20058;-76
2023/01/17 03:34:59;;;;;;;51.75;26.75;;;;;;;2.74;100.00;98899.63;5009660;28;20955;-75
2023/01/17 03:37:24;;;;;;;58.38;29.83;;;;;;;2.84;100.00;98934.22;5005670;28;20565;-75
2023/01/17 03:39:50;;;;;;;50.63;29.30;;;;;;;2.79;100.00;98904.84;5005064;28;20422;-75
2023/01/17 03:42:15;;;;;;;57.83;31.77;;;;;;;2.47;100.00;98807.09;5005349;28;20049;-75
2023/01/17 03:44:41;;;;;;;63.88;33.50;;;;;;;1.91;100.00;98787.72;5005984;28;20054;-77
2023/01/17 03:47:10;;;;;;;59.22;35.65;;;;;;;2.63;100.00;98912.50;5009924;28;20417;-76
2023/01/17 03:49:36;;;;;;;58.58;33.10;;;;;;;2.53;100.00;98892.59;4997346;28;20525;-77
2023/01/17 03:52:02;;;;;;;58.80;29.88;;;;;;;2.47;100.00;98897.69;5012611;28;20044;-75
2023/01/17 03:54:27;;;;;;;61.13;30.05;;;;;;;2.60;100.00;98909.91;5007934;28;20042;-75
2023/01/17 03:56:53;;;;;;;59.20;32.40;;;;;;;2.66;100.00;98871.06;5008442;28;20046;-75
2023/01/17 03:59:18;;;;;;;59.80;31.17;;;;;;;1.84;100.00;98794.53;5008708;28;20046;-75
2023/01/17 04:01:44;;;;;;;53.58;29.08;;;;;;;1.55;100.00;98721.91;5007255;28;20398;-76
2023/01/17 04:04:09;;;;;;;57.30;30.77;;;;;;;1.65;100.00;98753.88;5003326;28;20478;-76
2023/01/17 04:06:34;;;;;;;51.30;30.88;;;;;;;1.51;100.00;98738.25;5005671;28;20429;-77
2023/01/17 04:09:00;;;;;;;51.45;31.55;;;;;;;1.40;100.00;98745.88;5005793;28;20080;-78
2023/01/17 04:11:26;;;;;;;56.78;35.58;;;;;;;2.14;100.00;98851.72;5004350;28;20418;-77
2023/01/17 04:13:52;;;;;;;54.55;32.47;;;;;;;2.56;100.00;98874.47;5001907;28;20042;-77
2023/01/17 04:16:20;;;;;;;48.00;31.42;;;;;;;2.16;100.00;98768.06;5011038;28;20095;-77
2023/01/17 04:18:46;;;;;;;53.20;31.42;;;;;;;2.87;100.00;98861.72;4999636;28;20111;-75
2023/01/17 04:21:11;;;;;;;46.35;29.95;;;;;;;2.13;100.00;98726.66;5006169;28;20502;-76
2023/01/17 04:23:37;;;;;;;49.40;29.25;;;;;;;2.61;100.00;98844.28;5003741;28;20497;-75
2023/01/17 04:26:02;;;;;;;42.85;27.40;;;;;;;2.83;100.00;98862.53;5006448;28;20795;-77
2023/01/17 04:28:28;;;;;;;45.47;26.35;;;;;;;2.26;100.00;98727.59;5013399;28;20120;-79
2023/01/17 04:30:58;;;;;;;57.65;32.17;;;;;;;2.85;100.00;98861.69;5002851;28;20042;-76
2023/01/17 04:33:23;;;;;;;46.30;29.77;;;;;;;2.73;100.00;98838.31;5005340;28;21065;-76
2023/01/17 04:35:52;;;;;;;57.55;29.88;;;;;;;2.78;100.00;98843.53;5009967;28;20042;-76
2023/01/17 04:38:17;;;;;;;55.90;31.73;;;;;;;3.05;100.00;98832.47;5006509;28;20081;-76
2023/01/17 04:40:43;;;;;;;47.22;30.67;;;;;;;3.14;100.00;98842.88;5012185;28;20026;-76
2023/01/17 04:43:08;;;;;;;43.05;29.55;;;;;;;3.20;100.00;98860.16;5007347;28;20129;-77
2023/01/17 04:45:33;;;;;;;44.53;28.10;;;;;;;3.28;100.00;98848.97;5010282;28;20034;-75
2023/01/17 04:48:03;;;;;;;58.95;33.45;;;;;;;2.20;100.00;98668.94;5004255;28;20092;-75
2023/01/17 04:50:29;;;;;;;55.72;32.88;;;;;;;2.59;100.00;98721.72;4999022;28;20046;-75
2023/01/17 04:52:55;;;;;;;51.78;30.55;;;;;;;2.60;100.00;98746.78;5003132;28;20046;-78
2023/01/17 04:55:20;;;;;;;51.85;30.90;;;;;;;3.52;100.00;98876.69;5015279;28;20725;-77
2023/01/17 04:57:46;;;;;;;65.85;30.92;;;;;;;2.84;100.00;98763.28;5011601;28;20041;-77
2023/01/17 05:00:12;;;;;;;48.03;31.52;;;;;;;2.88;100.00;98802.16;5007512;28;20797;-78
2023/01/17 05:02:38;;;;;;;50.60;31.38;;;;;;;2.26;100.00;98754.34;5004632;28;20037;-77
2023/01/17 05:05:05;;;;;;;56.90;33.33;;;;;;;2.62;100.00;98851.22;5005517;28;20346;-76
2023/01/17 05:07:31;;;;;;;62.40;33.53;;;;;;;2.51;100.00;98879.63;5003833;28;20100;-79
2023/01/17 05:09:59;;;;;;;45.80;30.67;;;;;;;2.17;100.00;98836.22;5004555;28;20061;-76
2023/01/17 05:12:26;;;;;;;47.47;29.17;;;;;;;2.57;100.00;98888.28;5006659;28;20077;-77
2023/01/17 05:14:51;;;;;;;57.35;32.30;;;;;;;2.38;100.00;98859.66;5004104;28;20066;-76
2023/01/17 05:17:16;;;;;;;52.92;31.35;;;;;;;1.65;100.00;98741.81;5005888;28;20046;-76
2023/01/17 05:19:42;;;;;;;54.85;30.48;;;;;;;2.67;100.00;98878.00;5004136;28;20490;-76
2023/01/17 05:22:13;;;;;;;49.80;32.30;;;;;;;2.77;100.00;98901.38;5007248;28;20049;-76
2023/01/17 05:24:44;;;;;;;53.30;31.88;;;;;;;1.84;100.00;98768.69;4995828;28;20755;-77
2023/01/17 05:27:11;;;;;;;56.47;32.33;;;;;;;2.69;100.00;98914.25;5009132;28;20056;-77
2023/01/17 05:29:36;;;;;;;50.78;31.20;;;;;;;2.26;100.00;98846.63;5019543;28;20416;-74
2023/01/17 05:32:03;;;;;;;47.45;29.92;;;;;;;1.23;100.00;98681.13;5000176;28;20038;-78
2023/01/17 05:34:28;;;;;;;43.13;27.13;;;;;;;2.55;100.00;98898.59;5002152;28;20129;-76
2023/01/17 05:36:54;;;;;;;44.78;29.17;;;;;;;2.64;100.00;98911.63;4998442;28;20077;-75
2023/01/17 05:39:19;;;;;;;47.83;30.30;;;;;;;2.82;100.00;98916.09;5009060;28;20071;-77
2023/01/17 05:41:45;;;;;;;53.25;35.70;;;;;;;2.77;100.00;98922.97;5004000;28;20077;-76
2023/01/17 05:44:10;;;;;;;51.10;32.00;;;;;;;2.60;100.00;98894.34;5002461;28;20057;-75
2023/01/17 05:46:36;;;;;;;46.47;29.15;;;;;;;2.91;100.00;98929.09;5004431;28;20683;-77
2023/01/17 05:49:02;;;;;;;46.00;27.60;;;;;;;2.07;100.00;98797.31;5003611;28;20072;-76
2023/01/17 05:51:28;;;;;;;50.08;28.13;;;;;;;2.79;100.00;98897.09;5000935;28;20056;-77
2023/01/17 05:53:53;;;;;;;43.65;26.70;;;;;;;2.07;100.00;98799.06;4995146;28;20054;-75
2023/01/17 05:56:19;;;;;;;48.92;32.58;;;;;;;2.31;100.00;98825.09;5003508;28;20070;-76
2023/01/17 05:58:44;;;;;;;61.92;31.55;;;;;;;3.14;100.00;98933.56;5004191;28;20153;-77
2023/01/17 06:01:10;;;;;;;53.53;31.25;;;;;;;2.33;100.00;98794.91;5000390;28;20108;-77
2023/01/17 06:03:35;;;;;;;53.75;32.30;;;;;;;2.99;100.00;98941.22;5003078;28;20050;-75
2023/01/17 06:06:01;;;;;;;42.88;26.45;;;;;;;3.01;100.00;98947.28;5008551;28;20057;-76
2023/01/17 06:08:26;;;;;;;40.65;28.08;;;;;;;3.05;100.00;98936.97;5005711;28;20053;-76
2023/01/17 06:10:52;;;;;;;54.33;30.38;;;;;;;3.00;100.00;98915.34;5000742;28;20443;-76
2023/01/17 06:13:20;;;;;;;58.58;32.13;;;;;;;3.24;100.00;98909.41;5005112;28;20437;-76
2023/01/17 06:15:47;;;;;;;52.17;30.15;;;;;;;2.42;100.00;98801.88;5002787;28;20120;-77
2023/01/17 06:18:15;;;;;;;46.47;27.80;;;;;;;3.19;100.00;98951.75;4997767;28;20053;-76
2023/01/17 06:20:40;;;;;;;41.20;26.27;;;;;;;2.61;100.00;98846.03;5009754;28;20076;-75
2023/01/17 06:23:11;;;;;;;49.28;28.15;;;;;;;3.15;100.00;98935.28;4996760;28;20602;-76
2023/01/17 06:25:39;;;;;;;54.55;30.40;;;;;;;3.28;100.00;98938.84;5003790;28;20066;-76
2023/01/17 06:28:07;;;;;;;50.67;28.73;;;;;;;3.10;100.00;98935.25;4998723;28;20073;-76
2023/01/17 06:30:33;;;;;;;43.30;27.00;;;;;;;2.26;100.00;98790.56;5002043;28;20088;-76
2023/01/17 06:32:58;;;;;;;58.75;30.95;;;;;;;3.04;100.00;98931.75;4999166;28;20042;-76
2023/01/17 06:35:24;;;;;;;65.32;30.25;;;;;;;2.74;100.00;98881.50;4991744;28;21025;-77
2023/01/17 06:37:51;;;;;;;62.60;31.25;;;;;;;3.02;100.00;98918.81;4995523;28;20089;-77
2023/01/17 06:40:17;;;;;;;47.53;28.13;;;;;;;2.88;100.00;98890.22;4998933;28;20042;-76
2023/01/17 06:42:42;;;;;;;50.03;28.73;;;;;;;3.13;100.00;98911.94;5003199;28;20152;-78
2023/01/17 06:45:08;;;;;;;58.10;29.77;;;;;;;2.38;100.00;98774.25;4992698;28;20061;-78
2023/01/17 06:47:37;;;;;;;56.03;30.90;;;;;;;3.05;100.00;98892.06;5005662;28;20046;-73
2023/01/17 06:50:03;;;;;;;115.88;35.03;;;;;;;3.17;100.00;98887.78;5000871;28;20046;-75
2023/01/17 06:52:29;;;;;;;54.40;27.67;;;;;;;2.37;100.00;98744.06;4996837;28;20068;-76
2023/01/17 06:54:54;;;;;;;63.60;32.45;;;;;;;3.42;100.00;98906.06;5002436;28;20038;-75
2023/01/17 06:57:20;;;;;;;55.85;30.02;;;;;;;3.22;100.00;98905.09;5003459;28;20050;-74
2023/01/17 06:59:46;;;;;;;67.95;32.70;;;;;;;2.58;100.00;98766.63;5010363;28;20112;-75
2023/01/17 07:02:11;;;;;;;46.97;32.53;;;;;;;3.11;100.00;98907.63;5000434;28;20046;-74
2023/01/17 07:04:37;;;;;;;50.13;31.27;;;;;;;3.11;100.00;98910.22;4998592;28;20043;-75
2023/01/17 07:07:02;;;;;;;59.65;34.20;;;;;;;3.06;100.00;98920.53;5002876;28;20070;-74
2023/01/17 07:09:28;;;;;;;68.40;34.97;;;;;;;2.91;100.00;98853.13;4996130;28;20046;-78
2023/01/17 07:12:00;;;;;;;60.47;35.13;;;;;;;2.36;100.00;98742.31;5000666;28;20516;-78
2023/01/17 07:14:27;;;;;;;74.80;36.37;;;;;;;3.17;100.00;98871.38;5005160;28;20054;-78
2023/01/17 07:16:54;;;;;;;67.47;35.50;;;;;;;3.45;100.00;98900.03;5006170;28;20046;-78
2023/01/17 07:19:20;;;;;;;58.10;32.42;;;;;;;3.38;100.00;98875.78;5002704;28;20030;-75
2023/01/17 07:21:48;;;;;;;72.05;35.03;;;;;;;3.61;100.00;98921.69;5007524;28;20052;-77
2023/01/17 07:24:14;;;;;;;53.15;33.80;;;;;;;3.91;100.00;98924.38;5000134;28;20174;-76
2023/01/17 07:26:39;;;;;;;66.43;38.72;;;;;;;3.98;100.00;98902.78;4997358;28;20166;-75
2023/01/17 07:29:05;;;;;;;53.53;33.17;;;;;;;3.43;100.00;98803.22;5002790;28;21048;-76
2023/01/17 07:31:35;;;;;;;51.38;33.20;;;;;;;4.18;100.00;98920.09;5003063;28;20037;-76
2023/01/17 07:34:01;;;;;;;61.25;37.17;;;;;;;4.17;100.00;98898.47;5003030;28;20099;-77
2023/01/17 07:36:27;;;;;;;61.38;32.03;;;;;;;4.51;100.00;98939.19;5000334;28;20094;-76
2023/01/17 07:38:53;;;;;;;46.97;29.92;;;;;;;3.81;100.00;98818.84;4997973;28;20046;-77
2023/01/17 07:41:19;;;;;;;61.40;34.10;;;;;;;4.49;100.00;98918.38;5002967;28;20049;-77
2023/01/17 07:43:44;;;;;;;57.05;34.25;;;;;;;4.65;100.00;98932.25;5002128;28;20037;-75
2023/01/17 07:46:10;;;;;;;56.13;34.55;;;;;;;4.77;100.00;98934.84;5000648;28;20030;-76
2023/01/17 07:48:35;;;;;;;59.55;39.58;;;;;;;3.95;100.00;98835.28;4995064;28;20049;-76
2023/01/17 07:51:01;;;;;;;61.03;37.20;;;;;;;4.62;100.00;98933.13;5001461;28;20057;-79
2023/01/17 07:53:29;;;;;;;58.53;35.97;;;;;;;4.07;100.00;98880.28;5002725;28;20119;-78
2023/01/17 07:55:58;;;;;;;57.95;36.75;;;;;;;4.13;100.00;98947.78;4998569;28;20050;-76
2023/01/17 07:58:24;;;;;;;60.63;38.97;;;;;;;4.43;100.00;98926.19;5002831;28;20414;-76
2023/01/17 08:00:49;;;;;;;68.97;40.03;;;;;;;4.30;100.00;98854.34;5001689;28;20100;-75
2023/01/17 08:03:17;;;;;;;66.90;41.78;;;;;;;4.15;100.00;98835.31;4996982;28;20042;-77
2023/01/17 08:05:51;;;;;;;72.60;40.92;;;;;;;4.70;100.00;98946.09;5001113;28;20052;-77
2023/01/17 08:08:16;;;;;;;66.32;41.15;;;;;;;4.64;100.00;98910.59;4995115;28;20092;-77
2023/01/17 08:10:42;;;;;;;69.68;44.60;;;;;;;4.86;100.00;98944.38;4992567;28;20042;-76
2023/01/17 08:13:07;;;;;;;80.50;44.50;;;;;;;4.12;100.00;98774.72;5006146;28;20053;-77
2023/01/17 08:15:32;;;;;;;63.13;40.15;;;;;;;4.18;100.00;98798.97;4999635;28;20046;-77
2023/01/17 08:17:59;;;;;;;61.53;36.95;;;;;;;4.46;100.00;98913.19;5007960;28;20084;-77
2023/01/17 08:20:25;;;;;;;58.03;37.83;;;;;;;4.77;100.00;98933.97;4996028;28;20050;-77
2023/01/17 08:22:55;;;;;;;56.63;36.10;;;;;;;5.04;100.00;98918.34;5005971;28;20076;-74
2023/01/17 08:25:22;;;;;;;73.18;40.03;;;;;;;4.74;100.00;98934.84;5006587;28;21816;-77
2023/01/17 08:27:48;;;;;;;67.50;39.00;;;;;;;3.00;100.00;98669.22;5003228;28;20050;-81
2023/01/17 08:30:13;;;;;;;70.47;42.97;;;;;;;4.60;100.00;98944.38;5000404;28;20479;-77
2023/01/17 08:32:39;;;;;;;58.63;40.33;;;;;;;4.37;100.00;98928.78;5000404;28;20129;-78
2023/01/17 08:35:07;;;;;;;57.63;37.00;;;;;;;4.49;100.00;98931.38;5004050;28;20395;-77
2023/01/17 08:37:32;;;;;;;55.60;36.90;;;;;;;3.87;100.00;98742.75;5005306;28;20056;-79
2023/01/17 08:39:58;;;;;;;60.05;38.97;;;;;;;4.97;100.00;98892.38;5007339;28;20030;-78
2023/01/17 08:42:23;;;;;;;56.40;34.55;;;;;;;4.83;100.00;98858.63;5000368;28;20054;-77
2023/01/17 08:44:49;;;;;;;70.50;39.42;;;;;;;5.41;100.00;98987.63;5008331;28;20072;-77
2023/01/17 08:47:14;;;;;;;56.28;37.67;;;;;;;5.38;100.00;98998.03;5007481;28;20069;-76
2023/01/17 08:49:40;;;;;;;58.78;36.85;;;;;;;4.73;100.00;98857.78;5001358;28;20113;-77
2023/01/17 08:52:05;;;;;;;64.68;44.78;;;;;;;4.95;100.00;98926.16;5009826;28;20026;-77
2023/01/17 08:54:31;;;;;;;73.38;48.13;;;;;;;5.13;100.00;98919.19;5011211;28;20072;-78
2023/01/17 08:56:57;;;;;;;65.80;42.05;;;;;;;4.75;100.00;98824.88;5008690;28;20041;-77
2023/01/17 08:59:22;;;;;;;64.13;41.17;;;;;;;4.99;100.00;98904.50;5007523;28;20064;-80
2023/01/17 09:01:48;;;;;;;62.08;38.65;;;;;;;5.73;100.00;98990.13;5017326;28;20041;-76
2023/01/17 09:04:14;;;;;;;69.95;41.35;;;;;;;5.59;100.00;98955.47;5003819;28;20037;-77
2023/01/17 09:06:44;;;;;;;67.57;43.13;;;;;;;5.83;100.00;98976.22;5000014;28;20042;-79
2023/01/17 09:09:10;;;;;;;68.57;37.88;;;;;;;5.43;100.00;98898.31;5000246;28;20054;-78
2023/01/17 09:11:36;;;;;;;54.97;38.15;;;;;;;4.63;100.00;98745.19;5000736;28;20044;-76
2023/01/17 09:14:02;;;;;;;68.95;39.60;;;;;;;5.46;100.00;98848.03;5002679;28;20053;-78
2023/01/17 09:16:28;;;;;;;68.35;45.10;;;;;;;5.60;100.00;98858.34;5007276;28;20603;-77
2023/01/17 09:18:56;;;;;;;52.53;36.45;;;;;;;5.38;100.00;98845.44;5011366;28;20039;-77
2023/01/17 09:21:22;;;;;;;53.83;35.72;;;;;;;5.87;100.00;98870.34;5008275;28;20497;-76
2023/01/17 09:23:47;;;;;;;63.97;34.90;;;;;;;5.63;100.00;98874.81;5002276;28;20492;-77
2023/01/17 09:26:33;;;;;;;62.38;38.40;;;;;;;6.31;100.00;99002.91;5010258;28;20073;-77
2023/01/17 09:28:58;;;;;;;55.72;38.83;;;;;;;5.93;100.00;98886.78;5016508;28;20443;-77
2023/01/17 09:31:25;;;;;;;73.50;40.15;;;;;;;6.15;100.00;98902.28;5002367;28;20062;-76
2023/01/17 09:33:53;;;;;;;54.60;37.20;;;;;;;6.39;100.00;98916.91;5006750;28;20061;-77
2023/01/17 09:36:19;;;;;;;52.00;33.58;;;;;;;6.65;100.00;98997.50;4996571;28;20070;-77
2023/01/17 09:38:45;;;;;;;53.67;37.05;;;;;;;6.82;100.00;99033.88;5008431;28;20186;-78
2023/01/17 09:41:16;;;;;;;49.85;36.20;;;;;;;7.02;100.00;99045.88;5005994;28;20056;-78
2023/01/17 09:43:50;;;;;;;53.78;40.17;;;;;;;6.89;100.00;99030.34;5026538;28;20453;-77
2023/01/17 09:46:23;;;;;;;53.40;38.00;;;;;;;6.48;100.00;98936.81;5007647;28;20210;-79
2023/01/17 09:49:02;;;;;;;73.03;39.88;;;;;;;7.26;100.00;99030.03;5003035;28;20045;-78
2023/01/17 09:51:27;;;;;;;87.10;41.38;;;;;;;7.56;100.00;99046.25;4998505;28;20113;-76
2023/01/17 09:53:53;;;;;;;75.20;47.05;;;;;;;7.62;100.00;99025.34;5003224;28;20045;-77
2023/01/17 09:56:30;;;;;;;80.78;50.88;;;;;;;7.37;100.00;98970.78;5007273;28;20061;-76
2023/01/17 09:59:26;;;;;;;105.65;54.53;;;;;;;7.81;100.00;99047.75;4993961;28;20069;-76
2023/01/17 10:02:18;;;;;;;58.75;40.20;;;;;;;8.19;100.00;99080.41;5001678;28;20859;-75
2023/01/17 10:04:50;;;;;;;64.03;48.42;;;;;;;8.19;100.00;99083.03;5009626;28;20135;-78
2023/01/17 10:07:32;;;;;;;66.35;48.10;;;;;;;8.17;100.00;99073.44;5004500;28;20129;-78
2023/01/17 10:10:36;;;;;;;60.75;46.78;;;;;;;8.27;100.00;99089.91;5002888;28;20092;-77
2023/01/17 10:13:56;;;;;;;72.72;50.42;;;;;;;8.27;100.00;99105.59;4963085;28;20077;-78
2023/01/17 10:16:49;;;;;;;74.47;50.50;;;;;;;8.34;100.00;99109.88;4965758;28;20113;-78
2023/01/17 10:19:30;;;;;;;74.40;51.65;;;;;;;8.53;100.00;99100.94;4996214;28;20133;-77
2023/01/17 10:22:06;;;;;;;74.45;51.35;;;;;;;8.30;100.00;99116.84;5010301;28;20505;-76
2023/01/17 10:24:59;;;;;;;66.93;49.88;;;;;;;8.49;100.00;99101.84;5004398;28;20046;-77
2023/01/17 10:27:29;;;;;;;75.82;51.78;;;;;;;8.20;100.00;99015.97;5012883;28;20127;-80
2023/01/17 10:29:55;;;;;;;80.18;57.30;;;;;;;8.86;100.00;99109.19;5009172;28;20029;-77
2023/01/17 10:32:28;;;;;;;84.82;64.25;;;;;;;8.34;100.00;99008.78;5012879;28;20528;-77
2023/01/17 10:35:10;;;;;;;91.38;58.20;;;;;;;8.29;100.00;98971.41;4996347;28;20061;-77
2023/01/17 10:37:41;;;;;;;77.65;56.05;;;;;;;8.67;100.00;98993.53;5016936;28;20878;-77
2023/01/17 10:40:15;;;;;;;77.25;54.03;;;;;;;9.04;100.00;99103.72;5009497;28;20560;-76
2023/01/17 10:43:24;;;;;;;72.72;51.35;;;;;;;8.98;100.00;99072.38;5009095;28;20054;-77
2023/01/17 10:45:53;;;;;;;78.70;50.35;;;;;;;9.29;100.00;99074.53;4990656;28;20120;-78
2023/01/17 10:48:45;;;;;;;81.05;49.28;;;;;;;8.74;100.00;98989.09;5004597;28;20107;-77
2023/01/17 10:51:18;;;;;;;83.13;52.90;;;;;;;9.54;100.00;99106.41;5004771;28;20050;-78
2023/01/17 10:54:21;;;;;;;61.00;45.63;;;;;;;9.63;100.00;99081.81;5001181;28;20050;-78
2023/01/17 10:56:47;;;;;;;71.78;48.65;;;;;;;9.92;100.00;99069.03;5007678;28;20053;-78
2023/01/17 10:59:26;;;;;;;75.85;49.72;;;;;;;10.29;100.00;99110.28;5017819;28;20071;-77
2023/01/17 11:01:51;;;;;;;72.00;43.67;;;;;;;9.62;100.00;98996.28;5007686;28;20045;-80
2023/01/17 11:04:17;;;;;;;56.92;40.42;;;;;;;10.70;100.00;99133.94;5010011;28;20045;-76
2023/01/17 11:06:46;;;;;;;43.70;31.75;;;;;;;10.84;100.00;99113.53;5015450;28;20053;-76
2023/01/17 11:09:11;;;;;;;46.83;32.55;;;;;;;11.07;100.00;99117.38;5007147;28;20084;-78
2023/01/17 11:11:49;;;;;;;46.45;24.50;;;;;;;11.38;100.00;99167.44;5008777;28;20062;-77
2023/01/17 11:14:21;;;;;;;29.42;22.52;;;;;;;11.40;100.00;99136.72;5015274;28;20081;-76
2023/01/17 11:17:01;;;;;;;38.85;25.70;;;;;;;11.30;100.00;99032.81;5004968;28;20069;-77
2023/01/17 11:19:34;;;;;;;35.17;21.60;;;;;;;11.99;100.00;99157.22;5004854;28;20034;-78
2023/01/17 11:22:05;;;;;;;32.78;21.63;;;;;;;11.97;100.00;99151.97;5006852;28;20089;-78
2023/01/17 11:24:37;;;;;;;28.58;20.77;;;;;;;12.01;100.00;99158.91;5008091;28;20189;-78
2023/01/17 11:27:05;;;;;;;50.13;22.50;;;;;;;12.14;100.00;99188.34;5013195;28;20139;-77
2023/01/17 11:29:37;;;;;;;35.92;21.02;;;;;;;11.71;100.00;99093.94;5010796;28;20129;-76
2023/01/17 11:32:21;;;;;;;27.88;21.65;;;;;;;12.39;100.00;99182.44;5006923;28;20091;-76
2023/01/17 11:35:21;;;;;;;26.52;20.27;;;;;;;12.55;100.00;99183.75;5004905;28;20057;-77
2023/01/17 11:37:49;;;;;;;25.88;18.95;;;;;;;11.96;100.00;99068.78;4969968;28;20058;-77
2023/01/17 11:40:14;;;;;;;31.42;19.10;;;;;;;12.80;100.00;99189.16;5011684;28;20034;-75
2023/01/17 11:42:40;;;;;;;26.48;18.00;;;;;;;12.89;100.00;99188.03;5012325;28;20119;-78
2023/01/17 11:45:23;;;;;;;28.60;19.38;;;;;;;12.28;100.00;99082.78;5007737;28;20093;-78
2023/01/17 11:48:07;;;;;;;25.05;18.02;;;;;;;12.75;100.00;99164.75;5005525;28;20038;-77
2023/01/17 11:50:55;;;;;;;34.50;19.25;;;;;;;12.57;100.00;99095.09;5003706;28;20049;-76
2023/01/17 11:53:37;;;;;;;23.58;18.88;;;;;;;12.89;100.00;99159.94;5002028;28;20042;-77
2023/01/17 11:56:17;;;;;;;25.30;18.50;;;;;;;12.82;100.00;99133.84;4996347;28;20038;-78
2023/01/17 11:58:46;;;;;;;39.50;18.75;;;;;;;12.85;100.00;99167.97;5008950;28;20331;-78
2023/01/17 12:01:30;;;;;;;23.10;17.38;;;;;;;12.81;100.00;99140.88;5007736;28;20041;-76
2023/01/17 12:04:26;;;;;;;28.70;17.63;;;;;;;13.03;100.00;99174.47;5009091;28;20080;-77
2023/01/17 12:06:57;;;;;;;26.35;19.90;;;;;;;13.19;100.00;99170.47;5007992;28;20054;-79
2023/01/17 12:09:31;;;;;;;23.42;15.07;;;;;;;13.11;100.00;99172.47;5008768;28;20050;-78
2023/01/17 12:15:26;;;;;;;30.60;18.10;;;;;;;13.11;100.00;99143.50;4993598;28;20092;-77
2023/01/17 12:18:19;;;;;;;23.77;17.27;;;;;;;12.91;100.00;99080.06;4992972;28;20042;-77
2023/01/17 12:21:03;;;;;;;21.70;16.75;;;;;;;12.85;100.00;99036.34;5005239;28;20038;-77
2023/01/17 12:23:44;;;;;;;27.65;16.67;;;;;;;13.67;100.00;99164.59;4999657;28;20147;-77
2023/01/17 12:26:28;;;;;;;20.90;14.10;;;;;;;13.53;100.00;99148.34;5012273;28;20124;-75
2023/01/17 12:29:06;;;;;;;16.98;11.70;;;;;;;13.69;100.00;99175.91;5005631;28;20088;-78
2023/01/17 12:31:51;;;;;;;20.08;11.88;;;;;;;13.30;100.00;99083.22;5003413;28;20545;-78
2023/01/17 12:34:33;;;;;;;15.40;12.25;;;;;;;13.56;100.00;99135.06;5004166;28;20103;-78
2023/01/17 12:37:07;;;;;;;19.70;11.63;;;;;;;13.47;100.00;99135.38;4997325;28;20042;-78
2023/01/17 12:39:40;;;;;;;22.27;10.82;;;;;;;13.28;100.00;99096.44;5009819;28;20038;-77
2023/01/17 12:42:22;;;;;;;21.92;12.60;;;;;;;13.69;100.00;99168.00;5005733;28;20069;-77
2023/01/17 12:45:19;;;;;;;20.17;11.95;;;;;;;13.81;100.00;99165.88;5001087;28;20069;-76
2023/01/17 12:47:53;;;;;;;21.70;12.77;;;;;;;13.04;100.00;99036.59;5004950;28;20101;-77
2023/01/17 12:50:32;;;;;;;20.33;12.05;;;;;;;13.93;100.00;99178.69;4998414;28;20128;-77
2023/01/17 12:53:17;;;;;;;18.90;12.80;;;;;;;13.44;100.00;99061.69;5001510;28;20173;-77
2023/01/17 12:56:21;;;;;;;26.02;11.13;;;;;;;14.25;100.00;99166.16;5005369;28;20453;-77